sensor_id;sensor_type;location;lat;lon;timestamp;temperature;humidity
20246;DHT22;10281;54.406;18.556;2023-05-10T00:02:10;9.10;99.90
20246;DHT22;10281;54.406;18.556;2023-05-10T00:04:37;9.10;99.90
20246;DHT22;10281;54.406;18.556;2023-05-10T00:07:03;9.10;99.90
20246;DHT22;10281;54.406;18.556;2023-05-10T00:09:30;9.10;99.90
20246;DHT22;10281;54.406;18.556;2023-05-10T00:11:57;9.10;99.90
20246;DHT22;10281;54.406;18.556;2023-05-10T00:14:24;9.00;99.90
20246;DHT22;10281;54.406;18.556;2023-05-10T00:16:50;9.00;99.90
20246;DHT22;10281;54.406;18.556;2023-05-10T00:19:17;9.00;99.90
20246;DHT22;10281;54.406;18.556;2023-05-10T00:21:44;8.90;99.90
20246;DHT22;10281;54.406;18.556;2023-05-10T00:24:10;8.90;99.90
20246;DHT22;10281;54.406;18.556;2023-05-10T00:26:37;8.80;99.90
20246;DHT22;10281;54.406;18.556;2023-05-10T00:29:04;8.80;99.90
20246;DHT22;10281;54.406;18.556;2023-05-10T00:31:30;8.80;99.90
20246;DHT22;10281;54.406;18.556;2023-05-10T00:33:57;8.70;99.90
20246;DHT22;10281;54.406;18.556;2023-05-10T00:36:23;8.70;99.90
20246;DHT22;10281;54.406;18.556;2023-05-10T00:38:50;8.70;99.90
20246;DHT22;10281;54.406;18.556;2023-05-10T00:41:17;8.60;99.90
20246;DHT22;10281;54.406;18.556;2023-05-10T00:43:43;8.60;99.90
20246;DHT22;10281;54.406;18.556;2023-05-10T00:46:10;8.50;99.90
20246;DHT22;10281;54.406;18.556;2023-05-10T00:48:37;8.50;99.90
20246;DHT22;10281;54.406;18.556;2023-05-10T00:51:03;8.50;99.90
20246;DHT22;10281;54.406;18.556;2023-05-10T00:53:31;8.50;99.90
20246;DHT22;10281;54.406;18.556;2023-05-10T00:55:59;8.40;99.90
20246;DHT22;10281;54.406;18.556;2023-05-10T00:58:25;8.40;99.90
20246;DHT22;10281;54.406;18.556;2023-05-10T01:00:55;8.30;99.90
20246;DHT22;10281;54.406;18.556;2023-05-10T01:03:23;8.30;99.90
20246;DHT22;10281;54.406;18.556;2023-05-10T01:05:49;8.30;99.90
20246;DHT22;10281;54.406;18.556;2023-05-10T01:08:17;8.30;99.90
20246;DHT22;10281;54.406;18.556;2023-05-10T01:10:44;8.20;99.90
20246;DHT22;10281;54.406;18.556;2023-05-10T01:13:12;8.20;99.90
20246;DHT22;10281;54.406;18.556;2023-05-10T01:15:40;8.20;99.90
20246;DHT22;10281;54.406;18.556;2023-05-10T01:18:08;8.10;99.90
20246;DHT22;10281;54.406;18.556;2023-05-10T01:20:39;8.10;99.90
20246;DHT22;10281;54.406;18.556;2023-05-10T01:23:29;8.10;99.90
20246;DHT22;10281;54.406;18.556;2023-05-10T01:34:23;8.00;99.90
20246;DHT22;10281;54.406;18.556;2023-05-10T01:36:55;7.90;99.90
20246;DHT22;10281;54.406;18.556;2023-05-10T01:39:31;7.90;99.90
20246;DHT22;10281;54.406;18.556;2023-05-10T01:42:08;7.90;99.90
20246;DHT22;10281;54.406;18.556;2023-05-10T01:44:44;7.80;99.90
20246;DHT22;10281;54.406;18.556;2023-05-10T01:47:14;7.80;99.90
20246;DHT22;10281;54.406;18.556;2023-05-10T01:49:53;7.80;99.90
20246;DHT22;10281;54.406;18.556;2023-05-10T01:52:25;7.70;99.90
20246;DHT22;10281;54.406;18.556;2023-05-10T01:54:56;7.70;99.90
20246;DHT22;10281;54.406;18.556;2023-05-10T01:57:26;7.60;99.90
20246;DHT22;10281;54.406;18.556;2023-05-10T01:59:54;7.60;99.90
20246;DHT22;10281;54.406;18.556;2023-05-10T02:02:22;7.60;99.90
20246;DHT22;10281;54.406;18.556;2023-05-10T02:04:51;7.60;99.90
20246;DHT22;10281;54.406;18.556;2023-05-10T02:07:20;7.60;99.90
20246;DHT22;10281;54.406;18.556;2023-05-10T02:09:48;7.50;99.90
20246;DHT22;10281;54.406;18.556;2023-05-10T02:12:17;7.40;99.90
20246;DHT22;10281;54.406;18.556;2023-05-10T02:14:46;7.40;99.90
20246;DHT22;10281;54.406;18.556;2023-05-10T02:17:14;7.40;99.90
20246;DHT22;10281;54.406;18.556;2023-05-10T02:19:43;7.40;99.90
20246;DHT22;10281;54.406;18.556;2023-05-10T02:22:11;7.30;99.90
20246;DHT22;10281;54.406;18.556;2023-05-10T02:24:39;7.30;99.90
20246;DHT22;10281;54.406;18.556;2023-05-10T02:27:08;7.30;99.90
20246;DHT22;10281;54.406;18.556;2023-05-10T02:29:36;7.20;99.90
20246;DHT22;10281;54.406;18.556;2023-05-10T02:32:04;7.20;99.90
20246;DHT22;10281;54.406;18.556;2023-05-10T02:34:31;7.20;99.90
20246;DHT22;10281;54.406;18.556;2023-05-10T02:36:58;7.10;99.90
20246;DHT22;10281;54.406;18.556;2023-05-10T02:39:27;7.10;99.90
20246;DHT22;10281;54.406;18.556;2023-05-10T02:41:56;7.00;99.90
20246;DHT22;10281;54.406;18.556;2023-05-10T02:44:23;7.00;99.90
20246;DHT22;10281;54.406;18.556;2023-05-10T02:46:51;7.00;99.90
20246;DHT22;10281;54.406;18.556;2023-05-10T02:49:18;7.00;99.90
20246;DHT22;10281;54.406;18.556;2023-05-10T02:51:48;6.90;99.90
20246;DHT22;10281;54.406;18.556;2023-05-10T02:54:19;6.90;99.90
20246;DHT22;10281;54.406;18.556;2023-05-10T02:56:52;6.80;99.90
20246;DHT22;10281;54.406;18.556;2023-05-10T02:59:20;6.80;99.90
20246;DHT22;10281;54.406;18.556;2023-05-10T03:01:46;6.80;99.90
20246;DHT22;10281;54.406;18.556;2023-05-10T03:04:13;6.80;99.90
20246;DHT22;10281;54.406;18.556;2023-05-10T03:06:40;6.70;99.90
20246;DHT22;10281;54.406;18.556;2023-05-10T03:09:07;6.70;99.90
20246;DHT22;10281;54.406;18.556;2023-05-10T03:11:47;6.60;99.90
20246;DHT22;10281;54.406;18.556;2023-05-10T03:14:25;6.50;99.90
20246;DHT22;10281;54.406;18.556;2023-05-10T03:16:57;6.50;99.90
20246;DHT22;10281;54.406;18.556;2023-05-10T03:19:32;6.50;99.90
20246;DHT22;10281;54.406;18.556;2023-05-10T03:22:02;6.40;99.90
20246;DHT22;10281;54.406;18.556;2023-05-10T03:24:28;6.40;99.90
20246;DHT22;10281;54.406;18.556;2023-05-10T03:26:58;6.40;99.90
20246;DHT22;10281;54.406;18.556;2023-05-10T03:29:29;6.40;99.90
20246;DHT22;10281;54.406;18.556;2023-05-10T03:31:58;6.40;99.90
20246;DHT22;10281;54.406;18.556;2023-05-10T03:34:26;6.40;99.90
20246;DHT22;10281;54.406;18.556;2023-05-10T03:36:52;6.50;99.90
20246;DHT22;10281;54.406;18.556;2023-05-10T03:39:19;6.50;99.90
20246;DHT22;10281;54.406;18.556;2023-05-10T03:41:47;6.50;99.90
20246;DHT22;10281;54.406;18.556;2023-05-10T03:44:13;6.50;99.90
20246;DHT22;10281;54.406;18.556;2023-05-10T03:46:40;6.50;99.90
20246;DHT22;10281;54.406;18.556;2023-05-10T03:49:06;6.50;99.90
20246;DHT22;10281;54.406;18.556;2023-05-10T03:51:33;6.60;99.90
20246;DHT22;10281;54.406;18.556;2023-05-10T03:54:00;6.60;99.90
20246;DHT22;10281;54.406;18.556;2023-05-10T03:56:26;6.60;99.90
20246;DHT22;10281;54.406;18.556;2023-05-10T03:58:53;6.70;99.90
20246;DHT22;10281;54.406;18.556;2023-05-10T04:01:19;6.70;99.90
20246;DHT22;10281;54.406;18.556;2023-05-10T04:03:46;6.80;99.90
20246;DHT22;10281;54.406;18.556;2023-05-10T04:06:12;6.80;99.90
20246;DHT22;10281;54.406;18.556;2023-05-10T04:08:39;6.90;99.90
20246;DHT22;10281;54.406;18.556;2023-05-10T04:11:08;7.00;99.90
20246;DHT22;10281;54.406;18.556;2023-05-10T04:13:35;7.10;99.90
20246;DHT22;10281;54.406;18.556;2023-05-10T04:16:02;7.20;99.90
20246;DHT22;10281;54.406;18.556;2023-05-10T04:18:29;7.20;99.90
20246;DHT22;10281;54.406;18.556;2023-05-10T04:20:56;7.30;99.90
20246;DHT22;10281;54.406;18.556;2023-05-10T04:23:22;7.40;99.90
20246;DHT22;10281;54.406;18.556;2023-05-10T04:25:49;7.50;99.90
20246;DHT22;10281;54.406;18.556;2023-05-10T04:28:16;7.60;99.90
20246;DHT22;10281;54.406;18.556;2023-05-10T04:30:42;7.70;99.90
20246;DHT22;10281;54.406;18.556;2023-05-10T04:33:09;7.80;99.90
20246;DHT22;10281;54.406;18.556;2023-05-10T04:35:35;7.90;99.90
20246;DHT22;10281;54.406;18.556;2023-05-10T04:38:02;8.10;99.90
20246;DHT22;10281;54.406;18.556;2023-05-10T04:40:29;8.30;99.90
20246;DHT22;10281;54.406;18.556;2023-05-10T04:42:56;8.40;99.90
20246;DHT22;10281;54.406;18.556;2023-05-10T04:45:22;8.60;99.90
20246;DHT22;10281;54.406;18.556;2023-05-10T04:47:49;8.80;99.90
20246;DHT22;10281;54.406;18.556;2023-05-10T04:50:15;8.90;99.90
20246;DHT22;10281;54.406;18.556;2023-05-10T04:52:43;9.10;99.90
20246;DHT22;10281;54.406;18.556;2023-05-10T04:55:09;9.20;99.90
20246;DHT22;10281;54.406;18.556;2023-05-10T04:57:36;9.40;99.90
20246;DHT22;10281;54.406;18.556;2023-05-10T05:00:03;9.60;99.90
20246;DHT22;10281;54.406;18.556;2023-05-10T05:02:30;9.70;99.90
20246;DHT22;10281;54.406;18.556;2023-05-10T05:04:56;9.90;99.90
20246;DHT22;10281;54.406;18.556;2023-05-10T05:07:24;10.10;99.90
20246;DHT22;10281;54.406;18.556;2023-05-10T05:09:51;10.20;99.90
20246;DHT22;10281;54.406;18.556;2023-05-10T05:12:17;10.30;99.90
20246;DHT22;10281;54.406;18.556;2023-05-10T05:14:44;10.50;99.90
20246;DHT22;10281;54.406;18.556;2023-05-10T05:17:11;10.70;99.90
20246;DHT22;10281;54.406;18.556;2023-05-10T05:19:37;10.80;99.90
20246;DHT22;10281;54.406;18.556;2023-05-10T05:22:06;10.90;99.90
20246;DHT22;10281;54.406;18.556;2023-05-10T05:24:36;11.00;99.90
20246;DHT22;10281;54.406;18.556;2023-05-10T05:27:04;11.10;99.90
20246;DHT22;10281;54.406;18.556;2023-05-10T05:29:32;11.20;98.10
20246;DHT22;10281;54.406;18.556;2023-05-10T05:31:58;11.30;99.30
20246;DHT22;10281;54.406;18.556;2023-05-10T05:34:25;11.40;99.90
20246;DHT22;10281;54.406;18.556;2023-05-10T05:36:52;11.50;97.20
20246;DHT22;10281;54.406;18.556;2023-05-10T05:39:19;11.50;96.70
20246;DHT22;10281;54.406;18.556;2023-05-10T05:41:46;11.60;98.40
20246;DHT22;10281;54.406;18.556;2023-05-10T05:44:13;11.60;96.70
20246;DHT22;10281;54.406;18.556;2023-05-10T05:46:39;11.70;96.40
20246;DHT22;10281;54.406;18.556;2023-05-10T05:49:06;11.70;96.70
20246;DHT22;10281;54.406;18.556;2023-05-10T05:51:32;11.80;97.30
20246;DHT22;10281;54.406;18.556;2023-05-10T05:54:00;11.90;95.90
20246;DHT22;10281;54.406;18.556;2023-05-10T05:56:29;11.90;96.40
20246;DHT22;10281;54.406;18.556;2023-05-10T05:58:56;12.00;95.90
20246;DHT22;10281;54.406;18.556;2023-05-10T06:01:23;12.10;96.90
20246;DHT22;10281;54.406;18.556;2023-05-10T06:03:49;12.20;96.30
20246;DHT22;10281;54.406;18.556;2023-05-10T06:06:16;12.30;96.10
20246;DHT22;10281;54.406;18.556;2023-05-10T06:08:42;12.40;95.80
20246;DHT22;10281;54.406;18.556;2023-05-10T06:11:09;12.50;95.30
20246;DHT22;10281;54.406;18.556;2023-05-10T06:13:36;12.50;95.30
20246;DHT22;10281;54.406;18.556;2023-05-10T06:16:03;12.60;95.50
20246;DHT22;10281;54.406;18.556;2023-05-10T06:18:29;12.60;95.30
20246;DHT22;10281;54.406;18.556;2023-05-10T06:20:57;12.70;94.80
20246;DHT22;10281;54.406;18.556;2023-05-10T06:23:23;12.70;94.50
20246;DHT22;10281;54.406;18.556;2023-05-10T06:25:51;12.70;95.00
20246;DHT22;10281;54.406;18.556;2023-05-10T06:28:18;12.80;95.00
20246;DHT22;10281;54.406;18.556;2023-05-10T06:30:45;12.90;94.90
20246;DHT22;10281;54.406;18.556;2023-05-10T06:33:11;12.90;94.90
20246;DHT22;10281;54.406;18.556;2023-05-10T06:35:38;12.90;93.20
20246;DHT22;10281;54.406;18.556;2023-05-10T06:38:05;12.90;94.10
20246;DHT22;10281;54.406;18.556;2023-05-10T06:40:31;13.00;94.30
20246;DHT22;10281;54.406;18.556;2023-05-10T06:42:58;13.00;94.40
20246;DHT22;10281;54.406;18.556;2023-05-10T06:45:25;13.10;94.10
20246;DHT22;10281;54.406;18.556;2023-05-10T06:47:52;13.20;93.60
20246;DHT22;10281;54.406;18.556;2023-05-10T06:50:18;13.20;93.90
20246;DHT22;10281;54.406;18.556;2023-05-10T06:52:45;13.30;94.40
20246;DHT22;10281;54.406;18.556;2023-05-10T06:55:11;13.40;94.20
20246;DHT22;10281;54.406;18.556;2023-05-10T06:57:38;13.50;94.10
20246;DHT22;10281;54.406;18.556;2023-05-10T07:00:06;13.60;93.90
20246;DHT22;10281;54.406;18.556;2023-05-10T07:02:33;13.60;93.20
20246;DHT22;10281;54.406;18.556;2023-05-10T07:04:59;13.60;92.90
20246;DHT22;10281;54.406;18.556;2023-05-10T07:07:26;13.70;93.60
20246;DHT22;10281;54.406;18.556;2023-05-10T07:09:52;13.80;92.80
20246;DHT22;10281;54.406;18.556;2023-05-10T07:12:19;13.80;92.80
20246;DHT22;10281;54.406;18.556;2023-05-10T07:14:46;13.90;92.90
20246;DHT22;10281;54.406;18.556;2023-05-10T07:17:13;13.90;93.30
20246;DHT22;10281;54.406;18.556;2023-05-10T07:19:39;14.00;92.60
20246;DHT22;10281;54.406;18.556;2023-05-10T07:22:06;14.10;92.80
20246;DHT22;10281;54.406;18.556;2023-05-10T07:24:33;14.20;92.60
20246;DHT22;10281;54.406;18.556;2023-05-10T07:27:00;14.30;91.40
20246;DHT22;10281;54.406;18.556;2023-05-10T07:29:27;14.40;91.00
20246;DHT22;10281;54.406;18.556;2023-05-10T07:31:54;14.50;90.10
20246;DHT22;10281;54.406;18.556;2023-05-10T07:34:21;14.60;90.90
20246;DHT22;10281;54.406;18.556;2023-05-10T07:36:47;14.60;90.60
20246;DHT22;10281;54.406;18.556;2023-05-10T07:39:14;14.70;90.60
20246;DHT22;10281;54.406;18.556;2023-05-10T07:41:41;14.80;90.80
20246;DHT22;10281;54.406;18.556;2023-05-10T07:44:07;14.90;89.40
20246;DHT22;10281;54.406;18.556;2023-05-10T07:46:34;15.00;88.80
20246;DHT22;10281;54.406;18.556;2023-05-10T07:49:00;15.00;89.30
20246;DHT22;10281;54.406;18.556;2023-05-10T07:51:27;15.10;88.60
20246;DHT22;10281;54.406;18.556;2023-05-10T07:53:54;15.20;87.30
20246;DHT22;10281;54.406;18.556;2023-05-10T07:56:27;15.30;85.50
20246;DHT22;10281;54.406;18.556;2023-05-10T07:58:56;15.40;88.60
20246;DHT22;10281;54.406;18.556;2023-05-10T08:01:23;15.40;87.90
20246;DHT22;10281;54.406;18.556;2023-05-10T08:03:50;15.50;84.70
20246;DHT22;10281;54.406;18.556;2023-05-10T08:06:18;15.60;83.70
20246;DHT22;10281;54.406;18.556;2023-05-10T08:08:46;15.60;83.20
20246;DHT22;10281;54.406;18.556;2023-05-10T08:11:17;15.70;83.70
20246;DHT22;10281;54.406;18.556;2023-05-10T08:13:45;15.80;83.80
20246;DHT22;10281;54.406;18.556;2023-05-10T08:16:12;15.90;83.50
20246;DHT22;10281;54.406;18.556;2023-05-10T08:18:39;16.00;81.60
20246;DHT22;10281;54.406;18.556;2023-05-10T08:21:06;16.00;81.10
20246;DHT22;10281;54.406;18.556;2023-05-10T08:23:32;16.10;81.70
20246;DHT22;10281;54.406;18.556;2023-05-10T08:26:00;16.10;79.50
20246;DHT22;10281;54.406;18.556;2023-05-10T08:28:26;16.10;77.60
20246;DHT22;10281;54.406;18.556;2023-05-10T08:30:53;16.20;76.80
20246;DHT22;10281;54.406;18.556;2023-05-10T08:33:20;16.30;77.80
20246;DHT22;10281;54.406;18.556;2023-05-10T08:35:46;16.30;73.70
20246;DHT22;10281;54.406;18.556;2023-05-10T08:38:13;16.40;74.80
20246;DHT22;10281;54.406;18.556;2023-05-10T08:40:42;16.30;74.10
20246;DHT22;10281;54.406;18.556;2023-05-10T08:43:11;16.50;73.70
20246;DHT22;10281;54.406;18.556;2023-05-10T08:45:40;16.50;73.00
20246;DHT22;10281;54.406;18.556;2023-05-10T08:48:08;16.60;75.50
20246;DHT22;10281;54.406;18.556;2023-05-10T08:50:37;16.60;75.00
20246;DHT22;10281;54.406;18.556;2023-05-10T08:53:06;16.70;74.60
20246;DHT22;10281;54.406;18.556;2023-05-10T08:55:33;16.80;73.60
20246;DHT22;10281;54.406;18.556;2023-05-10T08:58:02;16.90;73.90
20246;DHT22;10281;54.406;18.556;2023-05-10T09:00:29;16.90;70.70
20246;DHT22;10281;54.406;18.556;2023-05-10T09:02:58;16.80;67.30
20246;DHT22;10281;54.406;18.556;2023-05-10T09:05:25;16.90;69.80
20246;DHT22;10281;54.406;18.556;2023-05-10T09:07:52;17.00;71.00
20246;DHT22;10281;54.406;18.556;2023-05-10T09:10:20;17.00;68.50
20246;DHT22;10281;54.406;18.556;2023-05-10T09:12:48;17.00;69.40
20246;DHT22;10281;54.406;18.556;2023-05-10T09:15:15;17.10;70.00
20246;DHT22;10281;54.406;18.556;2023-05-10T09:17:44;17.10;71.00
20246;DHT22;10281;54.406;18.556;2023-05-10T09:20:12;17.10;64.60
20246;DHT22;10281;54.406;18.556;2023-05-10T09:22:39;17.10;67.40
20246;DHT22;10281;54.406;18.556;2023-05-10T09:25:09;17.10;66.80
20246;DHT22;10281;54.406;18.556;2023-05-10T09:27:38;17.10;65.30
20246;DHT22;10281;54.406;18.556;2023-05-10T09:30:06;17.20;66.50
20246;DHT22;10281;54.406;18.556;2023-05-10T09:32:37;17.30;66.40
20246;DHT22;10281;54.406;18.556;2023-05-10T09:35:10;17.30;66.40
20246;DHT22;10281;54.406;18.556;2023-05-10T09:37:40;17.30;65.40
20246;DHT22;10281;54.406;18.556;2023-05-10T09:40:11;17.30;65.90
20246;DHT22;10281;54.406;18.556;2023-05-10T09:42:39;17.40;63.20
20246;DHT22;10281;54.406;18.556;2023-05-10T09:45:07;17.40;65.00
20246;DHT22;10281;54.406;18.556;2023-05-10T09:47:35;17.40;62.10
20246;DHT22;10281;54.406;18.556;2023-05-10T09:50:04;17.40;63.90
20246;DHT22;10281;54.406;18.556;2023-05-10T09:55:06;17.40;64.10
20246;DHT22;10281;54.406;18.556;2023-05-10T09:57:33;17.50;64.20
20246;DHT22;10281;54.406;18.556;2023-05-10T10:00:00;17.50;65.40
20246;DHT22;10281;54.406;18.556;2023-05-10T10:02:28;17.60;64.40
20246;DHT22;10281;54.406;18.556;2023-05-10T10:04:55;17.60;64.00
20246;DHT22;10281;54.406;18.556;2023-05-10T10:07:23;17.60;65.20
20246;DHT22;10281;54.406;18.556;2023-05-10T10:09:52;17.70;64.00
20246;DHT22;10281;54.406;18.556;2023-05-10T10:12:19;17.70;63.90
20246;DHT22;10281;54.406;18.556;2023-05-10T10:14:47;17.70;64.20
20246;DHT22;10281;54.406;18.556;2023-05-10T10:17:16;17.70;64.50
20246;DHT22;10281;54.406;18.556;2023-05-10T10:19:43;17.70;62.80
20246;DHT22;10281;54.406;18.556;2023-05-10T10:22:11;17.80;63.70
20246;DHT22;10281;54.406;18.556;2023-05-10T10:24:39;17.90;64.60
20246;DHT22;10281;54.406;18.556;2023-05-10T10:27:39;17.90;64.20
20246;DHT22;10281;54.406;18.556;2023-05-10T10:33:16;18.00;63.70
20246;DHT22;10281;54.406;18.556;2023-05-10T10:35:41;18.00;63.40
20246;DHT22;10281;54.406;18.556;2023-05-10T10:38:09;17.90;62.50
20246;DHT22;10281;54.406;18.556;2023-05-10T10:40:36;17.90;62.30
20246;DHT22;10281;54.406;18.556;2023-05-10T10:43:24;18.00;63.30
20246;DHT22;10281;54.406;18.556;2023-05-10T10:48:30;18.10;63.20
20246;DHT22;10281;54.406;18.556;2023-05-10T10:50:57;18.10;62.40
20246;DHT22;10281;54.406;18.556;2023-05-10T10:53:26;18.10;60.00
20246;DHT22;10281;54.406;18.556;2023-05-10T10:56:06;18.10;61.00
20246;DHT22;10281;54.406;18.556;2023-05-10T10:58:34;18.20;61.70
20246;DHT22;10281;54.406;18.556;2023-05-10T11:01:10;18.20;61.20
20246;DHT22;10281;54.406;18.556;2023-05-10T11:03:37;18.20;61.40
20246;DHT22;10281;54.406;18.556;2023-05-10T11:06:03;18.20;60.10
20246;DHT22;10281;54.406;18.556;2023-05-10T11:08:32;18.20;59.30
20246;DHT22;10281;54.406;18.556;2023-05-10T11:11:06;18.20;59.40
20246;DHT22;10281;54.406;18.556;2023-05-10T11:13:37;18.20;60.00
20246;DHT22;10281;54.406;18.556;2023-05-10T11:16:11;18.30;59.10
20246;DHT22;10281;54.406;18.556;2023-05-10T11:18:38;18.30;59.60
20246;DHT22;10281;54.406;18.556;2023-05-10T11:21:04;18.30;59.10
20246;DHT22;10281;54.406;18.556;2023-05-10T11:23:55;18.30;58.30
20246;DHT22;10281;54.406;18.556;2023-05-10T11:26:30;18.40;58.80
20246;DHT22;10281;54.406;18.556;2023-05-10T11:28:55;18.40;59.20
20246;DHT22;10281;54.406;18.556;2023-05-10T11:31:22;18.30;59.00
20246;DHT22;10281;54.406;18.556;2023-05-10T11:33:51;18.40;60.30
20246;DHT22;10281;54.406;18.556;2023-05-10T11:36:21;18.40;59.60
20246;DHT22;10281;54.406;18.556;2023-05-10T11:38:48;18.50;59.60
20246;DHT22;10281;54.406;18.556;2023-05-10T11:41:18;18.50;58.80
20246;DHT22;10281;54.406;18.556;2023-05-10T11:43:47;18.60;60.00
20246;DHT22;10281;54.406;18.556;2023-05-10T11:46:15;18.60;59.90
20246;DHT22;10281;54.406;18.556;2023-05-10T11:48:43;18.60;60.20
20246;DHT22;10281;54.406;18.556;2023-05-10T11:51:10;18.60;59.80
20246;DHT22;10281;54.406;18.556;2023-05-10T11:53:37;18.70;59.60
20246;DHT22;10281;54.406;18.556;2023-05-10T11:56:08;18.70;59.90
20246;DHT22;10281;54.406;18.556;2023-05-10T11:58:37;18.80;59.60
20246;DHT22;10281;54.406;18.556;2023-05-10T12:01:05;18.80;59.90
20246;DHT22;10281;54.406;18.556;2023-05-10T12:03:33;18.90;59.20
20246;DHT22;10281;54.406;18.556;2023-05-10T12:06:01;18.80;59.10
20246;DHT22;10281;54.406;18.556;2023-05-10T12:08:30;18.90;60.20
20246;DHT22;10281;54.406;18.556;2023-05-10T12:11:09;18.90;59.40
20246;DHT22;10281;54.406;18.556;2023-05-10T12:13:39;19.00;60.40
20246;DHT22;10281;54.406;18.556;2023-05-10T12:16:15;19.00;60.20
20246;DHT22;10281;54.406;18.556;2023-05-10T12:18:43;19.00;60.00
20246;DHT22;10281;54.406;18.556;2023-05-10T12:21:11;18.90;59.80
20246;DHT22;10281;54.406;18.556;2023-05-10T12:23:38;18.90;60.40
20246;DHT22;10281;54.406;18.556;2023-05-10T12:26:06;19.00;59.90
20246;DHT22;10281;54.406;18.556;2023-05-10T12:28:33;19.00;60.00
20246;DHT22;10281;54.406;18.556;2023-05-10T12:31:00;19.00;59.20
20246;DHT22;10281;54.406;18.556;2023-05-10T12:33:35;19.00;59.00
20246;DHT22;10281;54.406;18.556;2023-05-10T12:36:05;19.10;59.70
20246;DHT22;10281;54.406;18.556;2023-05-10T12:38:34;19.10;59.30
20246;DHT22;10281;54.406;18.556;2023-05-10T12:41:03;19.00;58.30
20246;DHT22;10281;54.406;18.556;2023-05-10T12:43:31;19.10;59.20
20246;DHT22;10281;54.406;18.556;2023-05-10T12:45:58;19.00;59.40
20246;DHT22;10281;54.406;18.556;2023-05-10T12:48:25;19.00;59.60
20246;DHT22;10281;54.406;18.556;2023-05-10T12:50:52;19.00;60.00
20246;DHT22;10281;54.406;18.556;2023-05-10T12:53:18;19.00;59.70
20246;DHT22;10281;54.406;18.556;2023-05-10T12:55:45;19.00;57.90
20246;DHT22;10281;54.406;18.556;2023-05-10T12:58:12;19.00;59.40
20246;DHT22;10281;54.406;18.556;2023-05-10T13:00:38;19.00;59.60
20246;DHT22;10281;54.406;18.556;2023-05-10T13:03:05;19.00;59.80
20246;DHT22;10281;54.406;18.556;2023-05-10T13:05:33;19.00;59.60
20246;DHT22;10281;54.406;18.556;2023-05-10T13:07:59;19.00;58.60
20246;DHT22;10281;54.406;18.556;2023-05-10T13:10:26;18.90;58.80
20246;DHT22;10281;54.406;18.556;2023-05-10T13:12:53;18.90;57.40
20246;DHT22;10281;54.406;18.556;2023-05-10T13:15:20;18.90;58.80
20246;DHT22;10281;54.406;18.556;2023-05-10T13:17:47;18.90;58.60
20246;DHT22;10281;54.406;18.556;2023-05-10T13:20:14;18.90;58.70
20246;DHT22;10281;54.406;18.556;2023-05-10T13:22:42;18.90;58.70
20246;DHT22;10281;54.406;18.556;2023-05-10T13:25:10;18.90;58.50
20246;DHT22;10281;54.406;18.556;2023-05-10T13:27:39;18.90;58.40
20246;DHT22;10281;54.406;18.556;2023-05-10T13:30:07;18.90;58.30
20246;DHT22;10281;54.406;18.556;2023-05-10T13:32:35;18.90;58.60
20246;DHT22;10281;54.406;18.556;2023-05-10T13:35:02;18.90;57.40
20246;DHT22;10281;54.406;18.556;2023-05-10T13:37:31;18.90;57.60
20246;DHT22;10281;54.406;18.556;2023-05-10T13:40:00;18.80;57.70
20246;DHT22;10281;54.406;18.556;2023-05-10T13:42:27;18.80;57.60
20246;DHT22;10281;54.406;18.556;2023-05-10T13:44:54;18.80;57.80
20246;DHT22;10281;54.406;18.556;2023-05-10T13:47:21;18.90;56.70
20246;DHT22;10281;54.406;18.556;2023-05-10T13:49:48;18.90;57.40
20246;DHT22;10281;54.406;18.556;2023-05-10T13:52:15;18.90;57.70
20246;DHT22;10281;54.406;18.556;2023-05-10T13:54:41;18.90;58.00
20246;DHT22;10281;54.406;18.556;2023-05-10T13:57:08;18.90;57.80
20246;DHT22;10281;54.406;18.556;2023-05-10T13:59:35;18.80;58.10
20246;DHT22;10281;54.406;18.556;2023-05-10T14:02:02;18.80;58.20
20246;DHT22;10281;54.406;18.556;2023-05-10T14:04:29;18.80;58.20
20246;DHT22;10281;54.406;18.556;2023-05-10T14:06:56;18.70;58.50
20246;DHT22;10281;54.406;18.556;2023-05-10T14:09:23;18.70;58.50
20246;DHT22;10281;54.406;18.556;2023-05-10T14:11:49;18.70;58.60
20246;DHT22;10281;54.406;18.556;2023-05-10T14:14:16;18.80;58.60
20246;DHT22;10281;54.406;18.556;2023-05-10T14:16:44;18.70;58.60
20246;DHT22;10281;54.406;18.556;2023-05-10T14:19:11;18.80;57.80
20246;DHT22;10281;54.406;18.556;2023-05-10T14:21:38;18.70;58.40
20246;DHT22;10281;54.406;18.556;2023-05-10T14:24:05;18.80;58.90
20246;DHT22;10281;54.406;18.556;2023-05-10T14:26:33;18.80;59.00
20246;DHT22;10281;54.406;18.556;2023-05-10T14:29:00;18.80;58.50
20246;DHT22;10281;54.406;18.556;2023-05-10T14:31:27;18.80;58.20
20246;DHT22;10281;54.406;18.556;2023-05-10T14:33:56;18.80;58.60
20246;DHT22;10281;54.406;18.556;2023-05-10T14:36:23;18.80;58.70
20246;DHT22;10281;54.406;18.556;2023-05-10T14:38:50;18.80;58.70
20246;DHT22;10281;54.406;18.556;2023-05-10T14:41:17;18.80;58.40
20246;DHT22;10281;54.406;18.556;2023-05-10T14:43:50;18.80;58.20
20246;DHT22;10281;54.406;18.556;2023-05-10T14:46:22;18.80;58.20
20246;DHT22;10281;54.406;18.556;2023-05-10T14:48:56;18.70;58.60
20246;DHT22;10281;54.406;18.556;2023-05-10T14:51:24;18.70;57.90
20246;DHT22;10281;54.406;18.556;2023-05-10T14:53:52;18.70;58.00
20246;DHT22;10281;54.406;18.556;2023-05-10T14:56:18;18.70;57.90
20246;DHT22;10281;54.406;18.556;2023-05-10T14:58:46;18.70;58.10
20246;DHT22;10281;54.406;18.556;2023-05-10T15:01:13;18.70;57.30
20246;DHT22;10281;54.406;18.556;2023-05-10T15:03:40;18.70;57.70
20246;DHT22;10281;54.406;18.556;2023-05-10T15:06:08;18.70;57.80
20246;DHT22;10281;54.406;18.556;2023-05-10T15:08:35;18.70;57.80
20246;DHT22;10281;54.406;18.556;2023-05-10T15:16:25;18.70;61.10
20246;DHT22;10281;54.406;18.556;2023-05-10T15:18:57;18.70;69.10
20246;DHT22;10281;54.406;18.556;2023-05-10T15:24:14;18.70;65.00
20246;DHT22;10281;54.406;18.556;2023-05-10T15:32:12;18.70;63.30
20246;DHT22;10281;54.406;18.556;2023-05-10T15:34:39;18.70;72.30
20246;DHT22;10281;54.406;18.556;2023-05-10T15:37:07;18.70;64.80
20246;DHT22;10281;54.406;18.556;2023-05-10T15:39:34;18.70;64.10
20246;DHT22;10281;54.406;18.556;2023-05-10T15:42:00;18.70;65.60
20246;DHT22;10281;54.406;18.556;2023-05-10T15:44:28;18.70;63.00
20246;DHT22;10281;54.406;18.556;2023-05-10T15:46:56;18.70;64.20
20246;DHT22;10281;54.406;18.556;2023-05-10T15:49:23;18.70;60.50
20246;DHT22;10281;54.406;18.556;2023-05-10T15:51:50;18.70;70.80
20246;DHT22;10281;54.406;18.556;2023-05-10T15:54:16;18.70;65.90
20246;DHT22;10281;54.406;18.556;2023-05-10T15:56:43;18.70;63.30